createdAt,value
2019-05-28T00:00:40.586Z,9.07
2019-05-28T00:03:09.264Z,9.83
2019-05-28T00:05:37.842Z,9.13
2019-05-28T00:08:06.310Z,10.00
2019-05-28T00:10:34.747Z,8.67
2019-05-28T00:13:03.234Z,10.80
2019-05-28T00:15:31.678Z,8.37
2019-05-28T00:18:00.438Z,8.07
2019-05-28T00:20:28.888Z,8.30
2019-05-28T00:22:57.358Z,7.37
2019-05-28T00:25:29.255Z,8.07
2019-05-28T00:27:56.348Z,7.50
2019-05-28T00:30:24.805Z,8.30
2019-05-28T00:32:53.237Z,7.83
2019-05-28T00:35:21.838Z,7.40
2019-05-28T00:37:50.276Z,11.10
2019-05-28T00:40:19.062Z,8.30
2019-05-28T00:42:47.497Z,7.27
2019-05-28T00:45:16.679Z,6.90
2019-05-28T00:47:45.248Z,7.97
2019-05-28T00:50:15.738Z,8.60
2019-05-28T00:52:44.290Z,7.60
2019-05-28T00:55:13.361Z,7.00
2019-05-28T00:57:45.211Z,11.37
2019-05-28T01:00:14.268Z,7.07
2019-05-28T01:02:42.736Z,7.30
2019-05-28T01:05:11.707Z,6.07
2019-05-28T01:07:40.151Z,6.40
2019-05-28T01:10:09.439Z,6.43
2019-05-28T01:12:37.889Z,7.03
2019-05-28T01:15:09.774Z,8.13
2019-05-28T01:17:38.293Z,9.00
2019-05-28T01:20:13.192Z,6.60
2019-05-28T01:22:41.708Z,6.57
2019-05-28T01:25:10.724Z,6.03
2019-05-28T01:27:39.299Z,6.00
2019-05-28T01:30:08.428Z,7.17
2019-05-28T01:32:36.868Z,7.70
2019-05-28T01:35:06.588Z,5.77
2019-05-28T01:37:35.713Z,7.80
2019-05-28T01:40:08.621Z,5.70
2019-05-28T01:42:37.058Z,4.97
2019-05-28T01:45:07.844Z,7.47
2019-05-28T01:47:36.560Z,5.50
2019-05-28T01:50:07.021Z,6.00
2019-05-28T01:52:35.632Z,5.90
2019-05-28T01:55:08.792Z,5.63
2019-05-28T01:57:37.265Z,5.67
2019-05-28T02:00:07.304Z,5.77
2019-05-28T02:02:35.810Z,7.20
2019-05-28T02:05:07.630Z,6.53
2019-05-28T02:07:36.503Z,5.33
2019-05-28T02:10:06.781Z,8.50
2019-05-28T02:12:35.230Z,5.07
2019-05-28T02:15:11.511Z,5.90
2019-05-28T02:17:40.156Z,6.57
2019-05-28T02:20:17.419Z,8.40
2019-05-28T02:22:45.869Z,7.33
2019-05-28T02:25:14.675Z,5.97
2019-05-28T02:27:43.127Z,5.30
2019-05-28T02:30:14.222Z,5.33
2019-05-28T02:32:44.281Z,6.03
2019-05-28T02:35:13.685Z,5.87
2019-05-28T02:37:42.404Z,6.73
2019-05-28T02:40:11.699Z,6.30
2019-05-28T02:42:40.409Z,7.93
2019-05-28T02:45:09.633Z,7.13
2019-05-28T02:47:38.078Z,10.47
2019-05-28T02:50:08.081Z,5.93
2019-05-28T02:52:42.115Z,11.63
2019-05-28T02:55:12.733Z,7.70
2019-05-28T02:57:42.634Z,7.17
2019-05-28T03:00:16.305Z,8.80
2019-05-28T03:02:48.785Z,8.50
2019-05-28T03:05:18.717Z,9.23
2019-05-28T03:07:48.040Z,6.53
2019-05-28T03:10:19.673Z,6.63
2019-05-28T03:12:48.144Z,6.73
2019-05-28T03:15:17.447Z,7.53
2019-05-28T03:17:47.568Z,6.43
2019-05-28T03:20:16.103Z,7.27
2019-05-28T03:22:46.069Z,7.80
2019-05-28T03:25:14.593Z,5.30
2019-05-28T03:27:43.041Z,7.10
2019-05-28T03:30:18.076Z,6.53
2019-05-28T03:32:43.920Z,13.10
2019-05-28T03:35:12.595Z,7.13
2019-05-28T03:37:43.987Z,7.07
2019-05-28T03:40:12.878Z,6.80
2019-05-28T03:42:41.319Z,6.03
2019-05-28T03:45:09.961Z,8.70
2019-05-28T03:47:38.520Z,8.03
2019-05-28T03:50:07.992Z,5.60
2019-05-28T03:52:36.434Z,7.07
2019-05-28T03:55:08.193Z,9.90
2019-05-28T03:57:38.169Z,8.93
2019-05-28T04:00:07.073Z,8.07
2019-05-28T04:02:37.297Z,8.90
2019-05-28T04:05:11.205Z,15.00
2019-05-28T04:07:37.115Z,12.10
2019-05-28T04:10:06.193Z,11.33
2019-05-28T04:12:40.633Z,10.37
2019-05-28T04:15:09.325Z,8.77
2019-05-28T04:17:37.857Z,8.40
2019-05-28T04:20:07.085Z,8.40
2019-05-28T04:22:35.748Z,7.47
2019-05-28T04:25:07.201Z,7.10
2019-05-28T04:27:39.029Z,12.20
2019-05-28T04:30:08.042Z,16.87
2019-05-28T04:32:40.369Z,17.03
2019-05-28T04:35:07.573Z,13.87
2019-05-28T04:37:39.115Z,14.20
2019-05-28T04:40:07.632Z,12.50
2019-05-28T04:42:36.251Z,14.97
2019-05-28T04:45:13.252Z,11.40
2019-05-28T04:47:44.879Z,10.97
2019-05-28T04:50:13.894Z,10.33
2019-05-28T04:52:42.883Z,14.03
2019-05-28T04:55:12.233Z,12.20
2019-05-28T04:57:40.780Z,11.20
2019-05-28T05:00:10.551Z,10.13
2019-05-28T05:02:55.582Z,13.60
2019-05-28T05:05:09.901Z,12.90
2019-05-28T05:07:38.440Z,12.90
2019-05-28T05:10:07.166Z,13.17
2019-05-28T05:12:38.560Z,12.07
2019-05-28T05:15:07.751Z,13.13
2019-05-28T05:17:42.086Z,15.90
2019-05-28T05:20:13.486Z,13.37
2019-05-28T05:22:41.924Z,11.53
2019-05-28T05:25:10.442Z,11.93
2019-05-28T05:27:41.720Z,8.53
2019-05-28T05:30:10.640Z,10.90
2019-05-28T05:32:39.152Z,7.07
2019-05-28T05:35:08.028Z,11.53
2019-05-28T05:37:36.492Z,10.27
2019-05-28T05:40:09.815Z,7.00
2019-05-28T05:42:41.024Z,10.40
2019-05-28T05:45:14.029Z,6.90
2019-05-28T05:47:42.476Z,7.83
2019-05-28T05:50:11.264Z,10.53
2019-05-28T05:52:40.002Z,12.13
2019-05-28T05:55:08.885Z,6.73
2019-05-28T05:57:37.416Z,5.50
2019-05-28T06:00:11.691Z,10.93
2019-05-28T06:02:40.460Z,6.23
2019-05-28T06:05:12.964Z,6.47
2019-05-28T06:07:41.438Z,9.53
2019-05-28T06:10:10.614Z,8.77
2019-05-28T06:12:39.116Z,9.23
2019-05-28T06:15:07.798Z,7.00
2019-05-28T06:17:37.854Z,7.70
2019-05-28T06:20:07.846Z,9.33
2019-05-28T06:22:36.413Z,6.90
2019-05-28T06:25:07.498Z,9.60
2019-05-28T06:27:36.318Z,8.70
2019-05-28T06:30:06.943Z,8.57
2019-05-28T06:32:36.482Z,7.87
2019-05-28T06:35:07.137Z,8.83
2019-05-28T06:37:35.639Z,6.60
2019-05-28T06:40:06.655Z,8.50
2019-05-28T06:42:39.370Z,12.43
2019-05-28T06:45:07.110Z,8.17
2019-05-28T06:47:35.550Z,10.30
2019-05-28T06:50:07.572Z,10.77
2019-05-28T06:52:36.252Z,9.23
2019-05-28T06:55:05.614Z,9.37
2019-05-28T06:57:34.056Z,8.13
2019-05-28T07:00:02.893Z,12.43
2019-05-28T07:02:31.350Z,11.17
2019-05-28T07:04:59.921Z,8.50
2019-05-28T07:07:28.422Z,11.57
2019-05-28T07:09:59.476Z,10.80
2019-05-28T07:12:28.065Z,7.97
2019-05-28T07:14:57.096Z,9.23
2019-05-28T07:17:26.164Z,11.53
2019-05-28T07:19:54.685Z,12.57
2019-05-28T07:22:27.318Z,9.33
2019-05-28T07:24:55.803Z,13.33
2019-05-28T07:27:24.267Z,10.00
2019-05-28T07:29:52.721Z,11.07
2019-05-28T07:32:21.171Z,12.00
2019-05-28T07:34:49.604Z,12.87
2019-05-28T07:37:51.489Z,9.77
2019-05-28T07:40:31.068Z,15.87
2019-05-28T07:42:50.111Z,10.30
2019-05-28T07:45:18.759Z,25.70
2019-05-28T07:47:47.443Z,10.60
2019-05-28T07:50:16.042Z,11.27
2019-05-28T07:52:44.511Z,10.43
2019-05-28T07:55:13.113Z,12.90
2019-05-28T07:57:47.031Z,13.63
2019-05-28T08:00:18.723Z,11.40
2019-05-28T08:02:47.180Z,9.67
2019-05-28T08:05:18.669Z,10.83
2019-05-28T08:07:47.178Z,8.80
2019-05-28T08:10:15.687Z,7.80
2019-05-28T08:13:03.506Z,10.73
2019-05-28T08:15:32.536Z,8.93
2019-05-28T08:18:01.089Z,8.57
2019-05-28T08:20:29.708Z,14.40
2019-05-28T08:22:58.686Z,8.37
2019-05-28T08:25:45.946Z,8.60
2019-05-28T08:28:19.970Z,10.57
2019-05-28T08:30:46.373Z,12.20
2019-05-28T08:33:15.009Z,7.23
2019-05-28T08:35:46.778Z,8.40
2019-05-28T08:38:24.745Z,9.43
2019-05-28T08:40:56.458Z,7.60
2019-05-28T08:43:31.347Z,9.17
2019-05-28T08:45:59.786Z,8.23
2019-05-28T08:48:28.250Z,16.23
2019-05-28T08:50:56.767Z,12.53
2019-05-28T08:53:25.230Z,14.03
2019-05-28T08:55:54.132Z,10.87
2019-05-28T08:58:22.673Z,10.97
2019-05-28T09:00:54.266Z,9.00
2019-05-28T09:03:22.851Z,8.50
2019-05-28T09:05:54.708Z,10.20
2019-05-28T09:08:37.839Z,7.13
2019-05-28T09:10:53.483Z,9.07
2019-05-28T09:13:21.995Z,9.70
2019-05-28T09:15:50.465Z,7.70
2019-05-28T09:18:18.918Z,16.53
2019-05-28T09:20:47.427Z,7.20
2019-05-28T09:23:17.740Z,9.00
2019-05-28T09:25:46.299Z,10.90
2019-05-28T09:28:29.363Z,13.87
2019-05-28T09:30:45.443Z,9.70
2019-05-28T09:33:15.914Z,8.97
2019-05-28T09:35:55.915Z,11.00
2019-05-28T09:38:17.440Z,8.10
2019-05-28T09:40:50.471Z,9.93
2019-05-28T09:43:16.099Z,9.00
2019-05-28T09:45:44.533Z,9.03
2019-05-28T09:48:13.274Z,10.33
2019-05-28T09:50:44.557Z,8.07
2019-05-28T09:53:14.285Z,12.07
2019-05-28T09:55:42.781Z,14.07
2019-05-28T09:58:11.398Z,9.90
2019-05-28T10:00:56.839Z,9.70
2019-05-28T10:03:11.077Z,9.20
2019-05-28T10:05:39.531Z,8.93
2019-05-28T10:08:08.248Z,7.97
2019-05-28T10:10:37.005Z,8.40
2019-05-28T10:13:05.573Z,7.70
2019-05-28T10:15:35.387Z,9.70
2019-05-28T10:18:04.393Z,9.23
2019-05-28T10:20:33.067Z,6.83
2019-05-28T10:23:01.698Z,11.63
2019-05-28T10:25:30.753Z,9.50
2019-05-28T10:28:01.711Z,10.27
2019-05-28T10:30:30.115Z,10.63
2019-05-28T10:32:58.681Z,7.13
2019-05-28T10:35:27.563Z,6.20
2019-05-28T10:37:56.113Z,8.87
2019-05-28T10:40:24.890Z,9.57
2019-05-28T10:42:53.446Z,11.70
2019-05-28T10:45:22.694Z,11.20
2019-05-28T10:47:51.241Z,9.17
2019-05-28T10:50:20.541Z,8.10
2019-05-28T10:52:49.081Z,6.80
2019-05-28T10:55:17.931Z,6.47
2019-05-28T10:57:46.361Z,6.33
2019-05-28T11:00:15.000Z,6.53
2019-05-28T11:02:43.677Z,6.03
2019-05-28T11:05:14.545Z,6.80
2019-05-28T11:07:43.005Z,6.97
2019-05-28T11:10:23.721Z,8.57
2019-05-28T11:12:42.985Z,7.07
2019-05-28T11:15:13.211Z,7.63
2019-05-28T11:17:41.735Z,8.30
2019-05-28T11:20:12.345Z,4.60
2019-05-28T11:22:41.649Z,7.10
2019-05-28T11:25:10.825Z,4.40
2019-05-28T11:27:41.933Z,4.87
2019-05-28T11:30:12.985Z,5.40
2019-05-28T11:32:41.477Z,3.93
2019-05-28T11:35:10.515Z,4.47
2019-05-28T11:37:39.057Z,4.37
2019-05-28T11:40:11.930Z,3.10
2019-05-28T11:42:40.833Z,2.70
2019-05-28T11:45:11.437Z,2.87
2019-05-28T11:47:41.302Z,3.37
2019-05-28T11:50:14.633Z,2.23
2019-05-28T11:52:43.330Z,2.70
2019-05-28T11:55:13.667Z,2.33
2019-05-28T11:57:42.112Z,1.90
2019-05-28T12:00:12.624Z,2.57
2019-05-28T12:02:41.203Z,2.13
2019-05-28T12:05:10.659Z,3.70
2019-05-28T12:07:39.081Z,1.80
2019-05-28T12:10:09.961Z,2.00
2019-05-28T12:12:41.377Z,2.60
2019-05-28T12:15:11.969Z,1.30
2019-05-28T12:17:43.285Z,1.73
2019-05-28T12:20:15.456Z,1.17
2019-05-28T12:22:44.145Z,3.10
2019-05-28T12:25:14.975Z,8.40
2019-05-28T12:27:43.742Z,2.70
2019-05-28T12:30:18.171Z,3.00
2019-05-28T12:32:45.174Z,26.93
2019-05-28T12:35:27.583Z,18.73
2019-05-28T12:37:49.336Z,2.80
2019-05-28T12:40:15.689Z,2.10
2019-05-28T12:42:48.537Z,7.80
2019-05-28T12:45:32.089Z,3.57
2019-05-28T12:48:07.335Z,2.13
2019-05-28T12:50:21.034Z,1.70
2019-05-28T12:52:49.817Z,2.40
2019-05-28T12:55:29.168Z,2.73
2019-05-28T12:57:58.014Z,2.23
2019-05-28T13:00:31.481Z,4.30
2019-05-28T13:03:00.509Z,3.00
2019-05-28T13:05:29.837Z,2.50
2019-05-28T13:08:08.750Z,1.80
2019-05-28T13:10:28.852Z,5.23
2019-05-28T13:12:57.303Z,3.40
2019-05-28T13:15:25.809Z,2.57
2019-05-28T13:17:54.475Z,2.27
2019-05-28T13:20:23.002Z,2.23
2019-05-28T13:22:51.457Z,2.00
2019-05-28T13:25:20.083Z,3.00
2019-05-28T13:27:48.569Z,2.80
2019-05-28T13:30:17.748Z,5.27
2019-05-28T13:32:46.596Z,1.77
2019-05-28T13:35:16.270Z,1.93
2019-05-28T13:37:44.707Z,2.10
2019-05-28T13:40:15.202Z,2.43
2019-05-28T13:42:43.944Z,5.70
2019-05-28T13:45:14.895Z,2.70
2019-05-28T13:47:43.640Z,2.67
2019-05-28T13:50:12.987Z,2.47
2019-05-28T13:52:41.448Z,2.33
2019-05-28T13:55:12.110Z,2.80
2019-05-28T13:57:40.632Z,3.00
2019-05-28T14:00:14.794Z,2.93
2019-05-28T14:02:46.428Z,10.63
2019-05-28T14:05:15.982Z,5.63
2019-05-28T14:07:44.435Z,3.00
2019-05-28T14:10:16.860Z,3.40
2019-05-28T14:12:45.352Z,3.97
2019-05-28T14:15:14.693Z,3.27
2019-05-28T14:17:43.480Z,4.10
2019-05-28T14:20:13.154Z,4.57
2019-05-28T14:22:41.757Z,3.17
2019-05-28T14:25:11.148Z,4.33
2019-05-28T14:27:39.666Z,3.33
2019-05-28T14:30:14.133Z,3.87
2019-05-28T14:32:42.611Z,3.00
2019-05-28T14:35:11.444Z,3.10
2019-05-28T14:37:40.010Z,5.87
2019-05-28T14:40:08.870Z,5.47
2019-05-28T14:42:37.316Z,3.73
2019-05-28T14:45:26.198Z,3.40
2019-05-28T14:47:55.130Z,3.90
2019-05-28T14:50:23.584Z,4.00
2019-05-28T14:52:52.012Z,4.07
2019-05-28T14:55:20.609Z,4.97
2019-05-28T14:57:49.054Z,6.43
2019-05-28T15:00:39.356Z,3.93
2019-05-28T15:03:07.791Z,4.23
2019-05-28T15:05:36.227Z,5.47
2019-05-28T15:08:04.829Z,7.23
2019-05-28T15:10:33.247Z,5.97
2019-05-28T15:13:01.777Z,5.80
2019-05-28T15:15:35.943Z,6.00
2019-05-28T15:18:00.479Z,8.10
2019-05-28T15:20:28.982Z,7.07
2019-05-28T15:22:57.487Z,6.30
2019-05-28T15:25:25.936Z,5.93
2019-05-28T15:27:54.441Z,5.40
2019-05-28T15:30:23.650Z,6.97
2019-05-28T15:32:52.081Z,5.83
2019-05-28T15:35:44.182Z,5.37
2019-05-28T15:38:12.625Z,5.50
2019-05-28T15:40:41.123Z,6.90
2019-05-28T15:43:09.575Z,4.87
2019-05-28T15:45:38.076Z,4.73
2019-05-28T15:48:06.571Z,5.00
2019-05-28T15:50:35.017Z,5.43
2019-05-28T15:53:03.522Z,6.20
2019-05-28T15:55:32.054Z,5.90
2019-05-28T15:58:00.530Z,5.70
2019-05-28T16:00:29.052Z,5.23
2019-05-28T16:02:57.491Z,5.53
2019-05-28T16:05:26.052Z,5.33
2019-05-28T16:07:54.502Z,5.23
2019-05-28T16:10:23.015Z,4.90
2019-05-28T16:12:51.454Z,4.50
2019-05-28T16:15:20.355Z,5.03
2019-05-28T16:17:48.806Z,4.53
2019-05-28T16:20:17.636Z,3.20
2019-05-28T16:22:46.099Z,3.90
2019-05-28T16:25:15.288Z,8.07
2019-05-28T16:27:43.717Z,5.17
2019-05-28T16:30:13.361Z,3.90
2019-05-28T16:32:41.918Z,3.30
2019-05-28T16:35:11.090Z,4.70
2019-05-28T16:37:39.616Z,3.57
2019-05-28T16:40:15.424Z,4.00
2019-05-28T16:42:40.710Z,6.40
2019-05-28T16:45:10.429Z,12.93
2019-05-28T16:47:38.875Z,8.37
2019-05-28T16:50:07.899Z,11.97
2019-05-28T16:52:36.592Z,12.23
2019-05-28T16:55:10.106Z,12.37
2019-05-28T16:57:38.563Z,7.90
2019-05-28T17:00:08.475Z,4.20
2019-05-28T17:02:37.205Z,4.47
2019-05-28T17:05:07.570Z,5.23
2019-05-28T17:07:36.013Z,4.90
2019-05-28T17:10:06.097Z,4.50
2019-05-28T17:12:34.737Z,5.77
2019-05-28T17:15:06.655Z,5.30
2019-05-28T17:17:35.138Z,5.83
2019-05-28T17:20:08.337Z,5.47
2019-05-28T17:22:36.892Z,4.90
2019-05-28T17:25:11.270Z,4.67
2019-05-28T17:27:37.636Z,5.37
2019-05-28T17:30:17.924Z,4.70
2019-05-28T17:32:38.019Z,5.90
2019-05-28T17:35:07.553Z,4.60
2019-05-28T17:37:55.346Z,6.23
2019-05-28T17:40:23.920Z,5.53
2019-05-28T17:42:52.371Z,4.63
2019-05-28T17:45:21.002Z,4.87
2019-05-28T17:47:49.526Z,4.50
2019-05-28T17:50:18.296Z,4.83
2019-05-28T17:52:51.065Z,5.17
2019-05-28T17:55:17.052Z,6.03
2019-05-28T17:57:45.488Z,5.60
2019-05-28T18:00:14.455Z,6.20
2019-05-28T18:02:42.931Z,6.03
2019-05-28T18:05:11.816Z,7.17
2019-05-28T18:07:40.267Z,8.70
2019-05-28T18:10:10.837Z,9.20
2019-05-28T18:12:39.362Z,11.63
2019-05-28T18:15:08.840Z,9.63
2019-05-28T18:17:37.401Z,7.23
2019-05-28T18:20:07.175Z,6.23
2019-05-28T18:22:35.708Z,7.00
2019-05-28T18:25:09.030Z,7.37
2019-05-28T18:27:38.019Z,8.93
2019-05-28T18:30:07.576Z,10.40
2019-05-28T18:32:36.058Z,10.10
2019-05-28T18:35:06.862Z,10.00
2019-05-28T18:37:35.312Z,9.73
2019-05-28T18:40:09.235Z,10.33
2019-05-28T18:42:37.668Z,9.27
2019-05-28T18:45:08.367Z,9.80
2019-05-28T18:47:37.152Z,8.53
2019-05-28T18:50:08.134Z,8.90
2019-05-28T18:52:36.580Z,8.00
2019-05-28T18:55:08.149Z,7.73
2019-05-28T18:57:36.602Z,9.20
2019-05-28T19:00:10.086Z,9.37
2019-05-28T19:02:38.525Z,10.63
2019-05-28T19:05:07.920Z,8.40
2019-05-28T19:07:36.345Z,6.20
2019-05-28T19:10:08.641Z,5.23
2019-05-28T19:12:37.262Z,5.53
2019-05-28T19:15:09.204Z,5.93
2019-05-28T19:17:37.741Z,5.70
2019-05-28T19:20:08.832Z,5.23
2019-05-28T19:22:37.356Z,4.57
2019-05-28T19:25:10.960Z,5.83
2019-05-28T19:27:39.395Z,5.90
2019-05-28T19:30:10.166Z,5.70
2019-05-28T19:32:38.661Z,7.40
2019-05-28T19:35:08.149Z,7.73
2019-05-28T19:37:37.128Z,10.63
2019-05-28T19:40:06.705Z,10.10
2019-05-28T19:42:35.144Z,9.47
2019-05-28T19:45:05.413Z,9.77
2019-05-28T19:47:33.863Z,10.07
2019-05-28T19:50:02.700Z,11.97
2019-05-28T19:52:31.237Z,11.10
2019-05-28T19:54:59.776Z,11.83
2019-05-28T19:57:28.220Z,11.27
2019-05-28T19:59:56.679Z,12.10
2019-05-28T20:02:25.143Z,12.53
2019-05-28T20:04:53.595Z,12.03
2019-05-28T20:07:22.046Z,11.70
2019-05-28T20:09:50.609Z,12.73
2019-05-28T20:12:19.075Z,12.67
2019-05-28T20:14:47.549Z,12.00
2019-05-28T20:17:15.995Z,11.80
2019-05-28T20:19:45.294Z,11.40
2019-05-28T20:22:13.889Z,10.53
2019-05-28T20:24:42.333Z,11.03
2019-05-28T20:27:10.851Z,10.60
2019-05-28T20:29:39.281Z,10.63
2019-05-28T20:32:07.734Z,9.73
2019-05-28T20:34:36.167Z,10.33
2019-05-28T20:37:05.774Z,9.57
2019-05-28T20:39:34.376Z,9.93
2019-05-28T20:42:03.959Z,8.90
2019-05-28T20:44:32.651Z,9.73
2019-05-28T20:47:01.104Z,9.27
2019-05-28T20:49:29.545Z,9.83
2019-05-28T20:51:57.985Z,9.57
2019-05-28T20:54:26.505Z,9.37
2019-05-28T20:56:56.251Z,9.50
2019-05-28T20:59:25.279Z,9.27
2019-05-28T21:01:54.153Z,8.93
2019-05-28T21:04:22.674Z,9.27
2019-05-28T21:06:52.100Z,8.80
2019-05-28T21:09:20.656Z,9.67
2019-05-28T21:11:50.341Z,8.30
2019-05-28T21:14:18.924Z,8.63
2019-05-28T21:16:48.767Z,9.00
2019-05-28T21:19:17.443Z,8.63
2019-05-28T21:21:45.906Z,9.50
2019-05-28T21:24:14.347Z,9.57
2019-05-28T21:26:42.771Z,7.67
2019-05-28T21:29:11.207Z,8.50
2019-05-28T21:31:39.656Z,8.60
2019-05-28T21:34:08.101Z,8.83
2019-05-28T21:36:36.563Z,9.23
2019-05-28T21:39:07.259Z,8.50
2019-05-28T21:41:35.689Z,9.30
2019-05-28T21:44:05.195Z,8.67
2019-05-28T21:46:33.637Z,10.03
2019-05-28T21:49:03.054Z,9.27
2019-05-28T21:51:31.719Z,9.17
2019-05-28T21:54:01.444Z,8.33
2019-05-28T21:56:30.271Z,8.67
2019-05-28T21:58:59.524Z,9.20
2019-05-28T22:01:30.330Z,9.13
2019-05-28T22:03:59.472Z,10.40
2019-05-28T22:06:28.089Z,10.17
2019-05-28T22:08:57.649Z,10.67
2019-05-28T22:11:26.280Z,8.77
2019-05-28T22:13:55.953Z,10.27
2019-05-28T22:16:24.547Z,9.60
2019-05-28T22:18:53.014Z,9.57
2019-05-28T22:21:21.614Z,11.33
2019-05-28T22:23:50.109Z,9.80
2019-05-28T22:26:18.570Z,9.47
2019-05-28T22:28:47.002Z,9.77
2019-05-28T22:31:15.448Z,10.47
2019-05-28T22:33:43.882Z,9.27
2019-05-28T22:36:12.342Z,10.33
2019-05-28T22:38:40.967Z,10.67
2019-05-28T22:41:09.400Z,11.10
2019-05-28T22:43:37.870Z,11.17
2019-05-28T22:46:07.353Z,10.17
2019-05-28T22:48:35.937Z,11.33
2019-05-28T22:51:05.591Z,10.40
2019-05-28T22:53:34.124Z,11.43
2019-05-28T22:56:04.949Z,11.00
2019-05-28T22:58:32.789Z,10.70
2019-05-28T23:01:01.220Z,10.87
2019-05-28T23:03:29.669Z,11.80
2019-05-28T23:05:58.988Z,9.83
2019-05-28T23:08:27.632Z,10.30
2019-05-28T23:10:56.931Z,11.90
2019-05-28T23:13:25.674Z,9.70
2019-05-28T23:15:54.153Z,9.60
2019-05-28T23:18:22.572Z,9.77
2019-05-28T23:20:51.051Z,12.20
2019-05-28T23:23:19.532Z,10.27
2019-05-28T23:25:47.981Z,9.93
2019-05-28T23:28:16.420Z,9.17
2019-05-28T23:30:44.851Z,9.27
2019-05-28T23:33:14.249Z,9.53
2019-05-28T23:35:43.265Z,9.03
2019-05-28T23:38:11.728Z,9.63
2019-05-28T23:40:40.157Z,10.33
2019-05-28T23:43:09.513Z,9.47
2019-05-28T23:45:38.094Z,8.97
2019-05-28T23:48:12.903Z,9.10
2019-05-28T23:50:37.033Z,9.33
2019-05-28T23:53:05.689Z,8.77
2019-05-28T23:55:34.199Z,10.30
2019-05-28T23:58:02.651Z,9.67
